createdAt,value
2017-08-20T00:02:03.036Z,101072.98
2017-08-20T00:04:34.334Z,101082.88
2017-08-20T00:07:05.673Z,101078.58
2017-08-20T00:09:37.293Z,101080.23
2017-08-20T00:12:08.830Z,101085.35
2017-08-20T00:14:40.176Z,101090.72
2017-08-20T00:17:12.107Z,101086.10
2017-08-20T00:19:43.445Z,101090.77
2017-08-20T00:22:15.592Z,101089.78
2017-08-20T00:24:47.294Z,101096.85
2017-08-20T00:27:18.623Z,101101.47
2017-08-20T00:29:50.304Z,101100.60
2017-08-20T00:32:21.731Z,101108.72
2017-08-20T00:34:53.239Z,101102.30
2017-08-20T00:37:25.048Z,101108.00
2017-08-20T00:39:58.627Z,101098.80
2017-08-20T00:42:30.286Z,101098.92
2017-08-20T00:45:02.643Z,101101.63
2017-08-20T00:47:34.488Z,101101.63
2017-08-20T00:50:09.212Z,101105.77
2017-08-20T00:55:19.811Z,101103.86
2017-08-20T00:57:51.157Z,101106.25
2017-08-20T01:00:22.612Z,101112.22
2017-08-20T01:02:55.737Z,101109.14
2017-08-20T01:05:27.067Z,101116.13
2017-08-20T01:07:58.358Z,101108.80
2017-08-20T01:10:30.032Z,101114.89
2017-08-20T01:13:01.783Z,101116.84
2017-08-20T01:15:33.176Z,101118.67
2017-08-20T01:18:06.697Z,101117.55
2017-08-20T01:20:38.022Z,101118.83
2017-08-20T01:23:09.335Z,101116.91
2017-08-20T01:25:40.991Z,101120.81
2017-08-20T01:28:13.734Z,101122.30
2017-08-20T01:30:45.040Z,101114.84
2017-08-20T01:33:16.486Z,101119.64
2017-08-20T01:35:48.147Z,101124.06
2017-08-20T01:38:19.481Z,101120.30
2017-08-20T01:40:50.774Z,101128.04
2017-08-20T01:43:22.443Z,101129.21
2017-08-20T01:45:54.891Z,101131.52
2017-08-20T01:48:26.209Z,101137.49
2017-08-20T01:50:58.126Z,101137.02
2017-08-20T01:53:29.745Z,101130.17
2017-08-20T01:56:02.920Z,101128.94
2017-08-20T01:58:34.210Z,101136.59
2017-08-20T02:01:05.972Z,101132.27
2017-08-20T02:03:37.281Z,101131.77
2017-08-20T02:06:08.809Z,101131.41
2017-08-20T02:08:40.684Z,101136.34
2017-08-20T02:11:12.050Z,101137.04
2017-08-20T02:13:43.566Z,101137.31
2017-08-20T02:16:17.052Z,101140.48
2017-08-20T02:18:48.961Z,101139.79
2017-08-20T02:21:21.027Z,101143.77
2017-08-20T02:23:53.051Z,101145.56
2017-08-20T02:26:25.248Z,101145.87
2017-08-20T02:28:56.708Z,101150.29
2017-08-20T02:31:28.470Z,101149.70
2017-08-20T02:33:59.806Z,101149.40
2017-08-20T02:36:31.115Z,101144.98
2017-08-20T02:39:02.620Z,101144.98
2017-08-20T02:41:33.954Z,101147.48
2017-08-20T02:44:06.376Z,101147.48
2017-08-20T02:46:39.320Z,101145.56
2017-08-20T02:49:10.611Z,101147.43
2017-08-20T02:51:42.014Z,101152.52
2017-08-20T02:54:16.555Z,101154.23
2017-08-20T02:56:48.525Z,101151.56
2017-08-20T02:59:19.829Z,101150.55
2017-08-20T03:01:51.228Z,101159.70
2017-08-20T03:04:22.656Z,101158.06
2017-08-20T03:06:54.568Z,101155.94
2017-08-20T03:09:25.923Z,101151.51
2017-08-20T03:11:57.721Z,101149.11
2017-08-20T03:14:29.042Z,101152.70
2017-08-20T03:17:00.364Z,101161.65
2017-08-20T03:19:31.699Z,101162.05
2017-08-20T03:22:06.627Z,101163.32
2017-08-20T03:24:37.957Z,101160.58
2017-08-20T03:27:09.679Z,101160.77
2017-08-20T03:29:41.017Z,101160.77
2017-08-20T03:32:13.465Z,101169.63
2017-08-20T03:34:44.772Z,101175.06
2017-08-20T03:37:16.723Z,101177.33
2017-08-20T03:39:49.204Z,101181.91
2017-08-20T03:42:20.736Z,101178.05
2017-08-20T03:44:52.213Z,101176.53
2017-08-20T03:47:23.557Z,101173.42
2017-08-20T03:49:56.392Z,101171.52
2017-08-20T03:52:28.141Z,101183.08
2017-08-20T03:54:59.975Z,101177.66
2017-08-20T03:57:31.636Z,101179.73
2017-08-20T04:00:05.634Z,101185.76
2017-08-20T04:02:36.962Z,101193.88
2017-08-20T04:05:08.287Z,101193.02
2017-08-20T04:07:40.083Z,101186.36
2017-08-20T04:10:11.498Z,101189.64
2017-08-20T04:12:42.803Z,101192.76
2017-08-20T04:15:14.173Z,101197.02
2017-08-20T04:17:46.085Z,101193.33
2017-08-20T04:20:17.831Z,101194.25
2017-08-20T04:22:49.170Z,101192.76
2017-08-20T04:25:20.963Z,101196.15
2017-08-20T04:27:52.852Z,101202.95
2017-08-20T04:30:24.246Z,101201.41
2017-08-20T04:32:57.440Z,101206.05
2017-08-20T04:35:28.802Z,101208.78
2017-08-20T04:38:00.211Z,101213.27
2017-08-20T04:40:31.580Z,101211.62
2017-08-20T04:43:03.577Z,101208.69
2017-08-20T04:45:34.928Z,101210.23
2017-08-20T04:48:08.132Z,101214.58
2017-08-20T04:50:39.515Z,101215.87
2017-08-20T04:53:11.229Z,101207.09
2017-08-20T04:55:42.596Z,101208.67
2017-08-20T04:58:14.430Z,101208.56
2017-08-20T05:00:45.836Z,101217.86
2017-08-20T05:03:17.184Z,101212.02
2017-08-20T05:05:48.530Z,101209.47
2017-08-20T05:08:20.225Z,101212.64
2017-08-20T05:10:52.323Z,101213.77
2017-08-20T05:13:23.783Z,101221.06
2017-08-20T05:15:57.574Z,101222.58
2017-08-20T05:18:29.125Z,101230.78
2017-08-20T05:21:01.896Z,101234.28
2017-08-20T05:23:33.302Z,101230.69
2017-08-20T05:26:06.482Z,101231.88
2017-08-20T05:28:38.126Z,101232.77
2017-08-20T05:31:09.460Z,101234.13
2017-08-20T05:33:40.787Z,101236.27
2017-08-20T05:36:12.569Z,101238.95
2017-08-20T05:38:43.876Z,101245.26
2017-08-20T05:41:15.178Z,101247.61
2017-08-20T05:43:47.032Z,101248.94
2017-08-20T05:46:20.120Z,101251.75
2017-08-20T05:48:51.591Z,101252.36
2017-08-20T05:51:22.892Z,101254.36
2017-08-20T05:53:55.508Z,101258.23
2017-08-20T05:56:26.838Z,101254.61
2017-08-20T05:58:59.409Z,101249.37
2017-08-20T06:01:31.208Z,101246.27
2017-08-20T06:04:03.788Z,101244.64
2017-08-20T06:06:35.194Z,101248.25
2017-08-20T06:09:07.043Z,101254.80
2017-08-20T06:11:38.443Z,101255.90
2017-08-20T06:14:10.149Z,101254.53
2017-08-20T06:16:41.867Z,101256.95
2017-08-20T06:19:13.204Z,101253.48
2017-08-20T06:21:44.552Z,101261.34
2017-08-20T06:24:16.272Z,101266.33
2017-08-20T06:26:48.089Z,101269.43
2017-08-20T06:29:19.735Z,101266.95
2017-08-20T06:31:51.475Z,101271.71
2017-08-20T06:34:22.908Z,101269.95
2017-08-20T06:36:54.870Z,101271.58
2017-08-20T06:39:26.526Z,101272.86
2017-08-20T06:41:59.682Z,101271.53
2017-08-20T06:44:31.092Z,101279.78
2017-08-20T06:47:02.736Z,101276.57
2017-08-20T06:49:34.520Z,101278.48
2017-08-20T06:52:06.158Z,101285.88
2017-08-20T06:54:37.528Z,101284.35
2017-08-20T06:57:09.194Z,101283.69
2017-08-20T06:59:40.871Z,101285.34
2017-08-20T07:02:14.016Z,101285.56
2017-08-20T07:04:45.398Z,101286.98
2017-08-20T07:07:17.336Z,101288.38
2017-08-20T07:09:48.679Z,101294.02
2017-08-20T07:12:34.547Z,101292.34
2017-08-20T07:15:05.895Z,101295.46
2017-08-20T07:17:37.667Z,101296.29
2017-08-20T07:20:09.206Z,101294.98
2017-08-20T07:22:40.520Z,101299.07
2017-08-20T07:25:11.929Z,101304.00
2017-08-20T07:27:43.246Z,101308.40
2017-08-20T07:30:15.600Z,101310.27
2017-08-20T07:32:46.957Z,101307.66
2017-08-20T07:35:18.580Z,101308.72
2017-08-20T07:37:49.907Z,101310.98
2017-08-20T07:40:21.258Z,101316.84
2017-08-20T07:42:53.662Z,101315.13
2017-08-20T07:45:25.043Z,101317.41
2017-08-20T07:47:57.738Z,101314.39
2017-08-20T07:50:29.141Z,101314.58
2017-08-20T07:53:11.237Z,101314.45
2017-08-20T07:55:43.335Z,101321.23
2017-08-20T07:58:16.530Z,101322.55
2017-08-20T08:00:48.214Z,101322.10
2017-08-20T08:03:19.831Z,101316.70
2017-08-20T08:05:51.204Z,101320.88
2017-08-20T08:08:22.592Z,101315.91
2017-08-20T08:10:54.756Z,101321.24
2017-08-20T08:13:26.293Z,101320.23
2017-08-20T08:15:58.684Z,101316.47
2017-08-20T08:18:30.083Z,101320.72
2017-08-20T08:21:01.666Z,101321.87
2017-08-20T08:23:33.377Z,101314.87
2017-08-20T08:26:07.917Z,101313.66
2017-08-20T08:28:40.547Z,101312.51
2017-08-20T08:31:12.894Z,101316.88
2017-08-20T08:33:44.249Z,101318.20
2017-08-20T08:36:17.255Z,101316.25
2017-08-20T08:38:48.617Z,101319.84
2017-08-20T08:41:19.949Z,101319.23
2017-08-20T08:43:51.503Z,101323.48
2017-08-20T08:46:22.924Z,101314.11
2017-08-20T08:48:58.810Z,101321.70
2017-08-20T08:51:31.353Z,101317.56
2017-08-20T08:54:04.107Z,101318.00
2017-08-20T08:56:35.944Z,101319.40
2017-08-20T08:59:08.088Z,101309.30
2017-08-20T09:01:39.835Z,101305.77
2017-08-20T09:04:12.372Z,101312.78
2017-08-20T09:06:44.153Z,101310.09
2017-08-20T09:09:15.584Z,101318.72
2017-08-20T09:11:47.262Z,101315.67
2017-08-20T09:14:19.053Z,101314.28
2017-08-20T09:16:50.530Z,101313.94
2017-08-20T09:19:23.344Z,101314.55
2017-08-20T09:21:56.387Z,101308.49
2017-08-20T09:24:28.604Z,101322.98
2017-08-20T09:27:01.155Z,101320.94
2017-08-20T09:29:32.707Z,101318.46
2017-08-20T09:32:09.902Z,101323.20
2017-08-20T09:34:44.898Z,101317.88
2017-08-20T09:37:20.138Z,101312.42
2017-08-20T09:39:52.570Z,101312.83
2017-08-20T09:45:06.381Z,101324.59
2017-08-20T09:47:38.103Z,101329.34
2017-08-20T09:50:10.213Z,101325.39
2017-08-20T09:52:41.992Z,101319.44
2017-08-20T09:55:13.679Z,101324.56
2017-08-20T09:57:45.751Z,101319.02
2017-08-20T10:00:17.918Z,101314.14
2017-08-20T10:02:50.054Z,101314.41
2017-08-20T10:05:22.040Z,101321.55
2017-08-20T10:07:53.990Z,101309.97
2017-08-20T10:10:25.873Z,101308.48
2017-08-20T10:13:00.418Z,101313.98
2017-08-20T10:15:33.158Z,101301.06
2017-08-20T10:18:06.620Z,101314.50
2017-08-20T10:20:38.170Z,101303.03
2017-08-20T10:23:09.512Z,101302.98
2017-08-20T10:25:41.206Z,101298.58
2017-08-20T10:28:13.811Z,101291.00
2017-08-20T10:30:45.642Z,101291.89
2017-08-20T10:33:17.743Z,101301.26
2017-08-20T10:35:50.086Z,101303.89
2017-08-20T10:38:22.168Z,101304.14
2017-08-20T10:40:57.987Z,101294.48
2017-08-20T10:43:30.136Z,101294.47
2017-08-20T10:46:02.950Z,101288.72
2017-08-20T10:48:37.251Z,101292.00
2017-08-20T10:51:09.844Z,101289.64
2017-08-20T10:53:41.588Z,101286.00
2017-08-20T10:56:14.422Z,101277.19
2017-08-20T10:58:46.249Z,101283.55
2017-08-20T11:01:18.242Z,101277.40
2017-08-20T11:03:50.201Z,101282.38
2017-08-20T11:06:21.983Z,101269.84
2017-08-20T11:08:56.510Z,101268.64
2017-08-20T11:11:33.613Z,101262.28
2017-08-20T11:14:14.837Z,101264.09
2017-08-20T11:16:46.197Z,101269.78
2017-08-20T11:19:17.822Z,101280.48
2017-08-20T11:21:49.197Z,101280.72
2017-08-20T11:24:21.085Z,101271.03
2017-08-20T11:26:52.775Z,101271.36
2017-08-20T11:29:24.162Z,101268.08
2017-08-20T11:31:56.628Z,101270.53
2017-08-20T11:34:28.419Z,101266.08
2017-08-20T11:37:00.770Z,101266.94
2017-08-20T11:39:32.788Z,101265.34
2017-08-20T11:42:06.857Z,101262.43
2017-08-20T11:44:38.726Z,101269.61
2017-08-20T11:47:13.138Z,101258.39
2017-08-20T11:49:50.265Z,101262.97
2017-08-20T11:52:22.582Z,101266.27
2017-08-20T11:54:55.467Z,101256.33
2017-08-20T11:57:27.392Z,101263.71
2017-08-20T12:00:04.060Z,101254.98
2017-08-20T12:02:36.052Z,101266.73
2017-08-20T12:05:08.515Z,101275.72
2017-08-20T12:07:40.068Z,101272.33
2017-08-20T12:10:14.926Z,101273.77
2017-08-20T12:12:57.338Z,101275.58
2017-08-20T12:15:29.082Z,101269.38
2017-08-20T12:18:04.935Z,101280.99
2017-08-20T12:21:22.020Z,101281.30
2017-08-20T12:24:03.892Z,101273.05
2017-08-20T12:26:36.038Z,101278.28
2017-08-20T12:29:22.121Z,101274.84
2017-08-20T12:31:54.420Z,101266.34
2017-08-20T12:34:26.788Z,101258.95
2017-08-20T12:37:03.721Z,101259.34
2017-08-20T12:39:36.546Z,101267.89
2017-08-20T12:42:23.257Z,101265.86
2017-08-20T12:45:03.621Z,101269.23
2017-08-20T12:47:37.473Z,101265.06
2017-08-20T12:50:09.781Z,101266.38
2017-08-20T12:52:41.882Z,101266.60
2017-08-20T12:55:14.015Z,101266.63
2017-08-20T12:57:45.846Z,101261.91
2017-08-20T13:00:18.288Z,101261.83
2017-08-20T13:02:52.639Z,101260.47
2017-08-20T13:05:24.258Z,101253.96
2017-08-20T13:07:58.436Z,101271.55
2017-08-20T13:10:30.256Z,101264.22
2017-08-20T13:13:03.003Z,101259.90
2017-08-20T13:15:34.510Z,101266.12
2017-08-20T13:18:08.516Z,101267.41
2017-08-20T13:20:40.771Z,101270.64
2017-08-20T13:23:13.741Z,101268.27
2017-08-20T13:25:45.933Z,101268.83
2017-08-20T13:28:18.304Z,101271.69
2017-08-20T13:30:51.548Z,101266.44
2017-08-20T13:33:26.117Z,101266.92
2017-08-20T13:36:06.620Z,101262.92
2017-08-20T13:38:38.868Z,101263.53
2017-08-20T13:41:12.013Z,101257.86
2017-08-20T13:43:47.768Z,101258.83
2017-08-20T13:46:19.347Z,101252.31
2017-08-20T13:48:50.963Z,101262.28
2017-08-20T13:51:22.924Z,101250.63
2017-08-20T13:53:54.460Z,101265.92
2017-08-20T13:56:25.933Z,101268.06
2017-08-20T13:59:02.709Z,101267.15
2017-08-20T14:01:38.768Z,101268.64
2017-08-20T14:04:11.390Z,101257.53
2017-08-20T14:06:43.411Z,101262.40
2017-08-20T14:09:15.481Z,101256.78
2017-08-20T14:11:47.378Z,101248.44
2017-08-20T14:14:21.302Z,101261.80
2017-08-20T14:16:54.086Z,101265.73
2017-08-20T14:19:25.417Z,101253.66
2017-08-20T14:21:59.009Z,101258.56
2017-08-20T14:24:30.363Z,101266.11
2017-08-20T14:27:04.028Z,101250.57
2017-08-20T14:29:35.858Z,101243.83
2017-08-20T14:32:08.493Z,101256.34
2017-08-20T14:34:40.632Z,101259.05
2017-08-20T14:37:14.337Z,101259.48
2017-08-20T14:39:46.348Z,101251.80
2017-08-20T14:42:18.108Z,101255.89
2017-08-20T14:44:49.786Z,101253.16
2017-08-20T14:47:21.118Z,101259.17
2017-08-20T14:49:52.760Z,101254.80
2017-08-20T14:52:24.207Z,101253.27
2017-08-20T14:54:59.322Z,101254.52
2017-08-20T14:57:30.651Z,101258.42
2017-08-20T15:00:06.658Z,101248.73
2017-08-20T15:02:38.099Z,101245.61
2017-08-20T15:05:09.720Z,101254.34
2017-08-20T15:07:41.102Z,101255.04
2017-08-20T15:10:13.478Z,101250.64
2017-08-20T15:12:52.754Z,101250.72
2017-08-20T15:15:24.073Z,101246.21
2017-08-20T15:17:57.392Z,101239.42
2017-08-20T15:20:28.755Z,101249.90
2017-08-20T15:23:01.429Z,101253.09
2017-08-20T15:25:33.044Z,101248.77
2017-08-20T15:28:07.631Z,101260.73
2017-08-20T15:30:38.979Z,101270.14
2017-08-20T15:33:10.740Z,101262.10
2017-08-20T15:35:42.054Z,101266.02
2017-08-20T15:38:14.423Z,101270.20
2017-08-20T15:40:46.121Z,101277.66
2017-08-20T15:43:17.455Z,101282.02
2017-08-20T15:45:49.104Z,101269.89
2017-08-20T15:48:20.535Z,101256.94
2017-08-20T15:50:52.018Z,101254.45
2017-08-20T15:53:23.805Z,101252.87
2017-08-20T15:55:55.627Z,101248.22
2017-08-20T15:58:27.379Z,101246.09
2017-08-20T16:01:00.289Z,101245.84
2017-08-20T16:03:31.793Z,101239.22
2017-08-20T16:06:05.512Z,101231.09
2017-08-20T16:08:36.965Z,101227.23
2017-08-20T16:11:09.124Z,101236.34
2017-08-20T16:13:40.488Z,101235.22
2017-08-20T16:16:12.103Z,101223.34
2017-08-20T16:18:43.732Z,101224.83
2017-08-20T16:21:15.193Z,101221.17
2017-08-20T16:23:46.572Z,101226.92
2017-08-20T16:31:06.147Z,101236.84
2017-08-20T16:36:00.985Z,101251.03
2017-08-20T16:38:32.981Z,101244.34
2017-08-20T16:41:04.455Z,101241.45
2017-08-20T16:43:36.587Z,101247.66
2017-08-20T16:46:10.368Z,101250.48
2017-08-20T16:48:42.158Z,101246.55
2017-08-20T16:51:13.884Z,101246.99
2017-08-20T16:53:45.671Z,101240.53
2017-08-20T16:56:17.415Z,101239.52
2017-08-20T16:58:49.377Z,101245.86
2017-08-20T17:01:20.795Z,101237.67
2017-08-20T17:03:52.700Z,101246.48
2017-08-20T17:06:24.418Z,101244.86
2017-08-20T17:08:58.591Z,101256.38
2017-08-20T17:11:30.699Z,101252.03
2017-08-20T17:14:06.956Z,101259.06
2017-08-20T17:16:38.404Z,101261.38
2017-08-20T17:19:10.563Z,101258.20
2017-08-20T17:21:43.636Z,101258.80
2017-08-20T17:24:16.770Z,101264.53
2017-08-20T17:26:48.497Z,101265.09
2017-08-20T17:29:19.999Z,101259.46
2017-08-20T17:31:51.509Z,101264.45
2017-08-20T17:34:23.489Z,101261.52
2017-08-20T17:36:58.641Z,101264.67
2017-08-20T17:39:31.857Z,101269.62
2017-08-20T17:42:06.147Z,101261.63
2017-08-20T17:44:38.397Z,101262.38
2017-08-20T17:47:10.037Z,101268.14
2017-08-20T17:49:41.678Z,101273.78
2017-08-20T17:52:13.944Z,101266.25
2017-08-20T17:54:45.540Z,101262.23
2017-08-20T17:57:21.130Z,101262.94
2017-08-20T17:59:53.546Z,101262.27
2017-08-20T18:02:26.244Z,101263.48
2017-08-20T18:05:01.068Z,101268.11
2017-08-20T18:07:32.560Z,101269.02
2017-08-20T18:10:08.166Z,101267.17
2017-08-20T18:12:41.196Z,101272.88
2017-08-20T18:15:13.626Z,101270.03
2017-08-20T18:17:45.383Z,101273.24
2017-08-20T18:20:24.271Z,101277.56
2017-08-20T18:22:59.992Z,101279.37
2017-08-20T18:25:31.416Z,101279.02
2017-08-20T18:28:06.275Z,101280.26
2017-08-20T18:30:37.735Z,101281.68
2017-08-20T18:33:10.727Z,101272.02
2017-08-20T18:35:42.541Z,101278.91
2017-08-20T18:38:17.126Z,101275.64
2017-08-20T18:40:52.140Z,101272.39
2017-08-20T18:43:24.361Z,101274.56
2017-08-20T18:45:59.405Z,101275.81
2017-08-20T18:48:31.368Z,101279.56
2017-08-20T18:51:06.264Z,101282.30
2017-08-20T18:53:39.015Z,101282.86
2017-08-20T18:56:14.295Z,101284.97
2017-08-20T18:58:47.402Z,101288.80
2017-08-20T19:01:19.761Z,101282.44
2017-08-20T19:03:51.860Z,101287.66
2017-08-20T19:06:24.126Z,101293.60
2017-08-20T19:08:59.921Z,101298.39
2017-08-20T19:11:31.909Z,101307.52
2017-08-20T19:14:08.907Z,101312.76
2017-08-20T19:16:40.708Z,101319.09
2017-08-20T19:19:12.732Z,101311.20
2017-08-20T19:21:44.947Z,101309.26
2017-08-20T19:24:18.497Z,101311.67
2017-08-20T19:26:50.321Z,101322.73
2017-08-20T19:29:22.358Z,101327.09
2017-08-20T19:31:54.467Z,101324.20
2017-08-20T19:37:08.915Z,101318.10
2017-08-20T19:39:41.771Z,101331.04
2017-08-20T19:42:17.340Z,101344.11
2017-08-20T19:44:50.240Z,101343.85
2017-08-20T19:47:22.242Z,101345.48
2017-08-20T19:49:54.273Z,101352.57
2017-08-20T19:52:26.314Z,101354.94
2017-08-20T19:54:59.687Z,101355.31
2017-08-20T19:57:31.536Z,101357.12
2017-08-20T20:00:07.722Z,101359.88
2017-08-20T20:02:40.402Z,101360.55
2017-08-20T20:05:12.153Z,101361.02
2017-08-20T20:07:43.702Z,101367.84
2017-08-20T20:10:17.214Z,101368.09
2017-08-20T20:12:48.672Z,101367.21
2017-08-20T20:15:20.470Z,101370.29
2017-08-20T20:17:51.928Z,101374.80
2017-08-20T20:20:23.515Z,101369.34
2017-08-20T20:22:55.742Z,101368.27
2017-08-20T20:25:28.768Z,101375.72
2017-08-20T20:28:02.950Z,101373.45
2017-08-20T20:30:34.525Z,101378.34
2017-08-20T20:33:07.469Z,101373.23
2017-08-20T20:35:39.229Z,101375.05
2017-08-20T20:38:12.006Z,101369.24
2017-08-20T20:40:43.978Z,101362.32
2017-08-20T20:43:15.414Z,101363.88
2017-08-20T20:45:46.900Z,101366.38
2017-08-20T20:48:19.946Z,101362.53
2017-08-20T20:50:51.591Z,101362.96
2017-08-20T20:53:23.723Z,101373.30
2017-08-20T20:55:58.963Z,101372.72
2017-08-20T20:58:35.139Z,101365.84
2017-08-20T21:01:08.277Z,101369.64
2017-08-20T21:03:43.380Z,101374.97
2017-08-20T21:06:21.086Z,101375.98
2017-08-20T21:08:54.229Z,101370.28
2017-08-20T21:11:29.651Z,101378.42
2017-08-20T21:14:05.044Z,101385.70
2017-08-20T21:16:37.834Z,101376.44
2017-08-20T21:19:10.043Z,101374.24
2017-08-20T21:21:44.413Z,101374.29
2017-08-20T21:24:26.183Z,101384.62
2017-08-20T21:27:02.482Z,101376.26
2017-08-20T21:29:37.826Z,101377.39
2017-08-20T21:32:12.955Z,101390.19
2017-08-20T21:34:46.621Z,101385.97
2017-08-20T21:37:24.727Z,101378.65
2017-08-20T21:39:56.554Z,101372.67
2017-08-20T21:42:28.409Z,101377.62
2017-08-20T21:45:09.988Z,101366.13
2017-08-20T21:47:46.303Z,101358.15
2017-08-20T21:50:25.348Z,101363.00
2017-08-20T21:52:58.404Z,101364.69
2017-08-20T21:55:34.443Z,101357.80
2017-08-20T21:58:15.635Z,101357.09
2017-08-20T22:00:50.241Z,101364.80
2017-08-20T22:03:27.182Z,101366.77
2017-08-20T22:09:05.545Z,101367.15
2017-08-20T22:11:36.902Z,101369.42
2017-08-20T22:14:08.654Z,101368.28
2017-08-20T22:16:40.139Z,101370.40
2017-08-20T22:19:11.933Z,101360.97
2017-08-20T22:21:43.484Z,101359.20
2017-08-20T22:24:15.200Z,101368.09
2017-08-20T22:26:46.927Z,101363.91
2017-08-20T22:32:26.189Z,101363.91
2017-08-20T22:34:59.239Z,101365.34
2017-08-20T22:37:30.611Z,101358.97
2017-08-20T22:40:07.803Z,101354.91
2017-08-20T22:42:39.324Z,101360.30
2017-08-20T22:45:11.593Z,101357.72
2017-08-20T22:47:44.067Z,101370.38
2017-08-20T22:50:18.471Z,101369.36
2017-08-20T22:52:49.863Z,101380.06
2017-08-20T22:55:21.988Z,101376.11
2017-08-20T22:57:54.596Z,101376.42
2017-08-20T23:00:26.213Z,101377.94
2017-08-20T23:02:58.132Z,101370.38
2017-08-20T23:05:30.008Z,101367.55
2017-08-20T23:08:02.512Z,101363.48
2017-08-20T23:10:33.919Z,101366.80
2017-08-20T23:13:06.921Z,101366.91
2017-08-20T23:15:38.505Z,101364.52
2017-08-20T23:18:10.807Z,101363.23
2017-08-20T23:20:42.239Z,101365.74
2017-08-20T23:23:15.912Z,101357.56
2017-08-20T23:25:47.857Z,101351.00
2017-08-20T23:28:20.480Z,101358.50
2017-08-20T23:30:51.845Z,101354.20
2017-08-20T23:33:23.607Z,101353.79
2017-08-20T23:35:55.147Z,101358.19
2017-08-20T23:38:28.182Z,101350.29
2017-08-20T23:40:59.739Z,101350.75
2017-08-20T23:43:31.653Z,101349.22
2017-08-20T23:46:05.585Z,101338.86
2017-08-20T23:48:37.904Z,101349.34
2017-08-20T23:51:09.549Z,101351.13
2017-08-20T23:53:43.039Z,101349.67
2017-08-20T23:56:17.953Z,101337.27
2017-08-20T23:58:49.450Z,101343.66
